PARDEE (PAR)

Elevation: 568' · MOKELUMNE R basin · Operator: East Bay Municipal Utility District

Provisional data, subject to change.
Query executed Wednesday at 22:27:43   clock

Select a sensor type for a plot of data.
Note: Reservoir Flows are daily averages.

Earlier

Date RES ELE    STORAGE    RES CHG    OUTFLOW    INFLOW    PPT INC   
 FEET   AF   AF   CFS   CFS   INCHES  
01/11/2016 535.20 133979 510 121 309 0.00
01/12/2016 534.83 133353 -626 101 292 0.00
01/13/2016 534.63 133004 -349 94 -6 0.20
01/14/2016 536.59 136404 3400 106 -3078 0.09
01/15/2016 537.44 137881 1477 113 -1970 0.18
01/16/2016 538.22 139263 1382 104 713 0.29
01/17/2016 538.97 140580 1317 95 683 0.20
01/18/2016 540.04 142496 1916 89 777 1.12
01/19/2016 541.05 144313 1817 88 786 0.55
01/20/2016 542.08 146187 1874 90 875 0.01
01/21/2016 542.93 147751 1564 105 869 0.00
01/22/2016 543.71 149179 1428 123 705 0.44
01/23/2016 544.97 151520 2341 128 830 0.45
01/24/2016 544.97 151517 -3 110 871 0.00
01/25/2016 542.53 147015 -4502 94 44 0.01
01/26/2016 546.56 154528 7513 103 -5649 0.00
01/27/2016 546.93 155235 707 108 -2947 0.00
01/28/2016 -- -- -- 104 379 0.00
01/29/2016 -- -- -- 93 357 0.56
01/30/2016 -- -- -- 99 648 0.40
01/31/2016 -- -- -- 124 1642 0.20
02/01/2016 525.45 N 117842 N -- 436 1099 0.00
02/02/2016 525.45 N 117842 N 0 410 637 0.00
02/03/2016 525.45 N 117842 N 0 420 503 0.00
02/04/2016 525.45 N 117842 N 0 387 424 0.00
02/05/2016 552.45 165948 48106 362 377 0.00
02/06/2016 552.61 166266 318 383 367 0.00
02/07/2016 553.03 167110 844 109 265 0.00
02/08/2016 552.96 166970 -140 658 641 0.00
02/09/2016 552.82 166688 -282 671 359 0.00
02/10/2016 -- -- -- -- -- --

Later | Latest

Warning! This data is preliminary and subject to revision.

Show PAR Map | Plot PAR Data | 1 Month PAR Data | Real-Time PAR Data | PAR Info